createdAt,value
2023-05-12T00:01:27.311Z,97293.69
2023-05-12T00:03:55.801Z,97294.69
2023-05-12T00:06:26.485Z,97299.19
2023-05-12T00:08:54.774Z,97295.06
2023-05-12T00:11:24.513Z,97294.38
2023-05-12T00:13:53.647Z,97291.88
2023-05-12T00:16:25.027Z,97287.75
2023-05-12T00:18:53.465Z,97294.63
2023-05-12T00:21:21.841Z,97287.59
2023-05-12T00:23:50.246Z,97293.09
2023-05-12T00:26:18.572Z,97289.81
2023-05-12T00:28:48.793Z,97287.50
2023-05-12T00:31:17.318Z,97291.31
2023-05-12T00:33:45.667Z,97284.34
2023-05-12T00:36:13.942Z,97289.00
2023-05-12T00:38:48.389Z,97286.66
2023-05-12T00:41:16.835Z,97291.34
2023-05-12T00:43:45.125Z,97278.41
2023-05-12T00:46:18.516Z,97287.34
2023-05-12T00:48:46.966Z,97286.91
2023-05-12T00:51:16.658Z,97283.56
2023-05-12T00:53:49.821Z,97275.59
2023-05-12T00:56:20.476Z,97285.56
2023-05-12T00:58:48.783Z,97286.41
2023-05-12T01:01:18.879Z,97280.22
2023-05-12T01:03:47.616Z,97279.44
2023-05-12T01:06:22.395Z,97279.78
2023-05-12T01:08:51.124Z,97281.59
2023-05-12T01:11:24.478Z,97284.41
2023-05-12T01:13:52.761Z,97287.25
2023-05-12T01:16:27.685Z,97283.91
2023-05-12T01:18:58.422Z,97284.94
2023-05-12T01:21:26.979Z,97289.44
2023-05-12T01:24:00.998Z,97294.09
2023-05-12T01:26:32.386Z,97290.59
2023-05-12T01:29:02.535Z,97288.63
2023-05-12T01:31:31.446Z,97290.47
2023-05-12T01:33:59.774Z,97291.63
2023-05-12T01:36:28.105Z,97286.63
2023-05-12T01:38:57.137Z,97292.28
2023-05-12T01:41:25.535Z,97294.47
2023-05-12T01:43:58.080Z,97289.34
2023-05-12T01:46:26.602Z,97288.66
2023-05-12T01:48:54.869Z,97288.84
2023-05-12T01:51:23.164Z,97289.84
2023-05-12T01:53:51.410Z,97280.34
2023-05-12T01:56:20.030Z,97282.19
2023-05-12T01:58:51.238Z,97288.50
2023-05-12T02:01:20.985Z,97293.19
2023-05-12T02:03:49.446Z,97293.97
2023-05-12T02:06:17.902Z,97282.88
2023-05-12T02:08:46.189Z,97288.03
2023-05-12T02:11:14.526Z,97284.53
2023-05-12T02:13:44.481Z,97282.03
2023-05-12T02:16:13.174Z,97279.53
2023-05-12T02:18:43.045Z,97281.19
2023-05-12T02:21:11.514Z,97284.19
2023-05-12T02:23:39.908Z,97282.88
2023-05-12T02:26:08.485Z,97282.88
2023-05-12T02:28:36.915Z,97279.38
2023-05-12T02:31:05.309Z,97283.69
2023-05-12T02:33:33.629Z,97269.59
2023-05-12T02:36:03.382Z,97282.72
2023-05-12T02:38:31.728Z,97272.06
2023-05-12T02:41:01.846Z,97278.88
2023-05-12T02:43:30.211Z,97277.69
2023-05-12T02:45:58.629Z,97274.06
2023-05-12T02:48:27.084Z,97269.38
2023-05-12T02:50:55.401Z,97274.53
2023-05-12T02:53:25.230Z,97270.88
2023-05-12T02:55:53.885Z,97276.03
2023-05-12T02:58:22.460Z,97270.53
2023-05-12T03:00:59.858Z,97267.72
2023-05-12T03:03:35.453Z,97262.22
2023-05-12T03:06:04.640Z,97273.66
2023-05-12T03:08:37.379Z,97267.38
2023-05-12T03:11:05.893Z,97267.22
2023-05-12T03:13:34.813Z,97268.34
2023-05-12T03:16:06.440Z,97265.34
2023-05-12T03:18:34.844Z,97267.03
2023-05-12T03:21:06.474Z,97266.69
2023-05-12T03:23:36.855Z,97266.69
2023-05-12T03:26:05.270Z,97270.00
2023-05-12T03:28:33.712Z,97268.19
2023-05-12T03:31:02.140Z,97270.66
2023-05-12T03:33:30.601Z,97269.66
2023-05-12T03:35:58.963Z,97271.16
2023-05-12T03:38:27.286Z,97271.63
2023-05-12T03:41:06.367Z,97266.66
2023-05-12T03:43:34.861Z,97273.28
2023-05-12T03:46:08.471Z,97270.63
2023-05-12T03:48:37.123Z,97275.75
2023-05-12T03:51:05.736Z,97265.78
2023-05-12T03:53:34.192Z,97277.28
2023-05-12T03:56:07.681Z,97272.75
2023-05-12T03:58:36.477Z,97275.25
2023-05-12T04:01:05.063Z,97278.59
2023-05-12T04:03:33.600Z,97277.56
2023-05-12T04:06:03.300Z,97276.59
2023-05-12T04:08:33.544Z,97279.88
2023-05-12T04:11:03.334Z,97284.41
2023-05-12T04:13:33.406Z,97279.88
2023-05-12T04:16:02.390Z,97281.56
2023-05-12T04:18:30.985Z,97283.22
2023-05-12T04:20:59.536Z,97279.53
2023-05-12T04:23:31.001Z,97291.03
2023-05-12T04:26:02.093Z,97290.03
2023-05-12T04:28:30.524Z,97289.38
2023-05-12T04:31:04.559Z,97285.72
2023-05-12T04:33:32.952Z,97291.88
2023-05-12T04:36:01.478Z,97292.84
2023-05-12T04:38:32.913Z,97289.03
2023-05-12T04:41:01.641Z,97297.50
2023-05-12T04:46:06.082Z,97294.81
2023-05-12T04:48:34.536Z,97294.19
2023-05-12T04:51:02.899Z,97299.16
2023-05-12T04:53:34.779Z,97296.34
2023-05-12T04:56:06.524Z,97304.16
2023-05-12T04:58:34.953Z,97303.97
2023-05-12T05:01:05.191Z,97308.97
2023-05-12T05:03:33.809Z,97308.78
2023-05-12T05:06:02.231Z,97302.44
2023-05-12T05:08:30.591Z,97308.63
2023-05-12T05:11:01.776Z,97310.44
2023-05-12T05:13:30.152Z,97307.59
2023-05-12T05:15:58.559Z,97301.25
2023-05-12T05:18:29.220Z,97314.41
2023-05-12T05:20:59.088Z,97309.25
2023-05-12T05:23:27.892Z,97312.41
2023-05-12T05:25:56.307Z,97318.56
2023-05-12T05:28:27.793Z,97324.38
2023-05-12T05:30:56.215Z,97318.22
2023-05-12T05:33:24.665Z,97319.72
2023-05-12T05:35:56.888Z,97329.34
2023-05-12T05:38:25.353Z,97334.66
2023-05-12T05:40:54.639Z,97326.03
2023-05-12T05:43:23.258Z,97327.69
2023-05-12T05:45:55.961Z,97329.53
2023-05-12T05:48:24.400Z,97322.72
2023-05-12T05:50:55.286Z,97327.88
2023-05-12T05:53:23.902Z,97334.03
2023-05-12T05:55:52.258Z,97329.34
2023-05-12T05:58:20.864Z,97332.19
2023-05-12T06:00:49.304Z,97343.50
2023-05-12T06:03:17.685Z,97337.34
2023-05-12T06:05:48.874Z,97340.50
2023-05-12T06:08:18.607Z,97340.97
2023-05-12T06:10:46.999Z,97345.13
2023-05-12T06:13:15.479Z,97345.00
2023-05-12T06:15:44.056Z,97347.13
2023-05-12T06:18:12.566Z,97345.94
2023-05-12T06:20:41.137Z,97349.44
2023-05-12T06:23:09.624Z,97344.94
2023-05-12T06:25:39.764Z,97343.09
2023-05-12T06:28:08.548Z,97349.91
2023-05-12T06:30:36.978Z,97351.59
2023-05-12T06:33:05.573Z,97355.72
2023-05-12T06:35:34.100Z,97361.56
2023-05-12T06:38:02.520Z,97359.34
2023-05-12T06:40:30.969Z,97366.38
2023-05-12T06:43:00.889Z,97358.03
2023-05-12T06:45:29.361Z,97355.53
2023-05-12T06:47:58.453Z,97354.00
2023-05-12T06:50:27.048Z,97360.00
2023-05-12T06:52:55.570Z,97359.63
2023-05-12T06:55:24.603Z,97356.41
2023-05-12T06:57:55.765Z,97352.59
2023-05-12T07:00:27.068Z,97354.25
2023-05-12T07:02:55.872Z,97364.06
2023-05-12T07:05:24.828Z,97364.72
2023-05-12T07:07:53.943Z,97360.88
2023-05-12T07:10:22.312Z,97368.06
2023-05-12T07:12:50.688Z,97369.22
2023-05-12T07:15:19.577Z,97368.88
2023-05-12T07:17:49.838Z,97365.38
2023-05-12T07:20:18.465Z,97370.72
2023-05-12T07:22:46.890Z,97368.06
2023-05-12T07:25:16.033Z,97362.72
2023-05-12T07:27:44.537Z,97375.22
2023-05-12T07:30:13.676Z,97375.88
2023-05-12T07:32:42.984Z,97369.88
2023-05-12T07:35:13.171Z,97374.38
2023-05-12T07:37:42.580Z,97375.38
2023-05-12T07:40:12.184Z,97379.59
2023-05-12T07:42:40.591Z,97380.97
2023-05-12T07:45:10.020Z,97381.13
2023-05-12T07:47:40.358Z,97384.94
2023-05-12T07:50:09.364Z,97392.31
2023-05-12T07:52:48.014Z,97386.50
2023-05-12T07:55:16.926Z,97387.84
2023-05-12T07:57:45.610Z,97396.47
2023-05-12T08:00:15.784Z,97390.50
2023-05-12T08:02:44.808Z,97394.16
2023-05-12T08:05:13.616Z,97390.69
2023-05-12T08:07:43.979Z,97394.69
2023-05-12T08:10:14.102Z,97399.19
2023-05-12T08:12:43.382Z,97388.38
2023-05-12T08:15:12.706Z,97397.50
2023-05-12T08:17:41.075Z,97402.38
2023-05-12T08:20:10.842Z,97390.38
2023-05-12T08:22:39.991Z,97395.72
2023-05-12T08:25:12.568Z,97394.91
2023-05-12T08:27:41.255Z,97389.56
2023-05-12T08:30:11.146Z,97393.22
2023-05-12T08:32:39.764Z,97393.22
2023-05-12T08:35:08.311Z,97388.38
2023-05-12T08:37:36.757Z,97398.53
2023-05-12T08:40:12.641Z,97395.72
2023-05-12T08:42:45.610Z,97406.03
2023-05-12T08:45:13.924Z,97402.56
2023-05-12T08:47:43.718Z,97403.50
2023-05-12T08:50:13.264Z,97398.84
2023-05-12T08:52:41.900Z,97405.00
2023-05-12T08:55:12.203Z,97412.63
2023-05-12T08:57:45.629Z,97407.97
2023-05-12T09:00:16.223Z,97406.97
2023-05-12T09:02:52.804Z,97414.78
2023-05-12T09:05:23.674Z,97419.31
2023-05-12T09:07:55.889Z,97417.44
2023-05-12T09:10:35.191Z,97416.81
2023-05-12T09:13:17.421Z,97418.28
2023-05-12T09:15:48.563Z,97417.44
2023-05-12T09:18:16.964Z,97424.28
2023-05-12T09:20:45.446Z,97418.78
2023-05-12T09:23:19.109Z,97421.63
2023-05-12T09:26:00.525Z,97420.59
2023-05-12T09:28:37.742Z,97422.44
2023-05-12T09:31:17.656Z,97422.44
2023-05-12T09:33:46.068Z,97428.59
2023-05-12T09:36:21.088Z,97422.09
2023-05-12T09:39:00.891Z,97424.13
2023-05-12T09:41:30.556Z,97420.09
2023-05-12T09:44:01.386Z,97427.91
2023-05-12T09:46:32.346Z,97433.06
2023-05-12T09:49:02.671Z,97418.09
2023-05-12T09:51:32.237Z,97424.22
2023-05-12T09:54:00.840Z,97422.41
2023-05-12T09:56:32.402Z,97428.19
2023-05-12T09:59:02.487Z,97428.69
2023-05-12T10:01:30.986Z,97428.34
2023-05-12T10:04:00.534Z,97429.19
2023-05-12T10:06:33.812Z,97436.00
2023-05-12T10:09:15.665Z,97424.50
2023-05-12T10:11:46.671Z,97424.63
2023-05-12T10:14:15.509Z,97428.59
2023-05-12T10:16:46.762Z,97423.09
2023-05-12T10:19:15.702Z,97421.09
2023-05-12T10:21:46.197Z,97426.25
2023-05-12T10:24:17.013Z,97428.56
2023-05-12T10:26:47.519Z,97419.72
2023-05-12T10:29:16.770Z,97426.41
2023-05-12T10:31:46.403Z,97420.72
2023-05-12T10:34:19.778Z,97425.88
2023-05-12T10:36:50.329Z,97417.03
2023-05-12T10:39:19.959Z,97420.63
2023-05-12T10:41:51.095Z,97417.44
2023-05-12T10:44:29.467Z,97417.75
2023-05-12T10:47:00.959Z,97426.22
2023-05-12T10:49:37.602Z,97429.22
2023-05-12T10:52:07.535Z,97427.06
2023-05-12T10:54:44.222Z,97430.56
2023-05-12T10:57:43.555Z,97435.88
2023-05-12T11:00:15.581Z,97427.09
2023-05-12T11:02:52.709Z,97431.78
2023-05-12T11:05:22.550Z,97430.59
2023-05-12T11:07:52.458Z,97426.47
2023-05-12T11:10:22.047Z,97423.25
2023-05-12T11:12:52.380Z,97425.25
2023-05-12T11:15:21.131Z,97424.78
2023-05-12T11:17:49.900Z,97420.09
2023-05-12T11:20:24.366Z,97424.25
2023-05-12T11:22:52.880Z,97436.41
2023-05-12T11:25:21.486Z,97428.59
2023-05-12T11:27:51.776Z,97437.94
2023-05-12T11:30:20.667Z,97424.56
2023-05-12T11:32:49.133Z,97429.88
2023-05-12T11:35:19.792Z,97427.41
2023-05-12T11:37:48.480Z,97429.03
2023-05-12T11:40:19.082Z,97430.50
2023-05-12T11:42:54.676Z,97432.47
2023-05-12T11:45:25.886Z,97429.75
2023-05-12T11:47:55.518Z,97428.84
2023-05-12T11:50:25.932Z,97435.13
2023-05-12T11:52:55.597Z,97433.75
2023-05-12T11:55:25.486Z,97434.91
2023-05-12T11:58:00.764Z,97444.38
2023-05-12T12:00:32.731Z,97437.22
2023-05-12T12:03:12.999Z,97443.34
2023-05-12T12:05:44.124Z,97442.53
2023-05-12T12:08:17.326Z,97450.56
2023-05-12T12:10:46.703Z,97445.22
2023-05-12T12:13:21.912Z,97442.06
2023-05-12T12:15:50.579Z,97454.56
2023-05-12T12:18:19.998Z,97454.56
2023-05-12T12:20:48.967Z,97453.75
2023-05-12T12:23:17.267Z,97455.94
2023-05-12T12:25:45.556Z,97463.78
2023-05-12T12:28:15.274Z,97450.72
2023-05-12T12:30:43.597Z,97460.22
2023-05-12T12:33:11.978Z,97460.03
2023-05-12T12:35:43.396Z,97455.34
2023-05-12T12:38:11.747Z,97455.63
2023-05-12T12:40:40.050Z,97454.63
2023-05-12T12:43:08.740Z,97449.94
2023-05-12T12:45:49.280Z,97455.94
2023-05-12T12:48:18.259Z,97466.06
2023-05-12T12:50:46.553Z,97465.59
2023-05-12T12:53:14.852Z,97458.91
2023-05-12T12:55:43.160Z,97458.72
2023-05-12T12:58:11.606Z,97462.84
2023-05-12T13:00:41.419Z,97467.34
2023-05-12T13:03:09.851Z,97470.38
2023-05-12T13:05:38.666Z,97470.19
2023-05-12T13:08:07.224Z,97467.53
2023-05-12T13:10:36.129Z,97470.56
2023-05-12T13:13:04.383Z,97467.09
2023-05-12T13:15:33.139Z,97463.56
2023-05-12T13:18:02.830Z,97474.44
2023-05-12T13:20:31.333Z,97461.25
2023-05-12T13:22:59.754Z,97466.59
2023-05-12T13:25:28.088Z,97465.75
2023-05-12T13:27:56.363Z,97472.13
2023-05-12T13:30:25.210Z,97466.97
2023-05-12T13:32:53.757Z,97472.31
2023-05-12T13:35:23.701Z,97467.81
2023-05-12T13:37:52.140Z,97468.63
2023-05-12T13:40:20.422Z,97470.28
2023-05-12T13:42:48.735Z,97462.91
2023-05-12T13:45:17.799Z,97469.28
2023-05-12T13:47:47.833Z,97473.78
2023-05-12T13:50:16.206Z,97482.63
2023-05-12T13:52:47.512Z,97472.78
2023-05-12T13:55:20.831Z,97476.44
2023-05-12T13:57:49.612Z,97474.13
2023-05-12T14:00:18.948Z,97475.16
2023-05-12T14:02:47.343Z,97478.19
2023-05-12T14:05:15.898Z,97479.38
2023-05-12T14:07:45.931Z,97482.06
2023-05-12T14:10:14.228Z,97480.53
2023-05-12T14:12:42.904Z,97484.41
2023-05-12T14:17:48.123Z,97484.47
2023-05-12T14:20:16.656Z,97476.00
2023-05-12T14:22:46.378Z,97473.34
2023-05-12T14:25:16.164Z,97483.34
2023-05-12T14:27:45.321Z,97478.38
2023-05-12T14:30:15.079Z,97473.22
2023-05-12T14:32:43.596Z,97472.41
2023-05-12T14:35:11.969Z,97476.72
2023-05-12T14:37:40.286Z,97482.06
2023-05-12T14:40:12.215Z,97479.38
2023-05-12T14:42:40.527Z,97482.69
2023-05-12T14:45:10.261Z,97482.25
2023-05-12T14:47:38.642Z,97485.91
2023-05-12T14:50:08.357Z,97487.56
2023-05-12T14:52:38.515Z,97480.59
2023-05-12T14:55:12.269Z,97489.22
2023-05-12T14:57:41.196Z,97489.88
2023-05-12T15:00:11.988Z,97483.34
2023-05-12T15:02:42.638Z,97488.69
2023-05-12T15:05:13.431Z,97478.69
2023-05-12T15:07:42.112Z,97486.50
2023-05-12T15:10:12.720Z,97493.50
2023-05-12T15:12:41.008Z,97489.00
2023-05-12T15:15:11.872Z,97488.50
2023-05-12T15:17:40.625Z,97484.91
2023-05-12T15:20:10.904Z,97488.59
2023-05-12T15:22:39.508Z,97492.78
2023-05-12T15:25:09.801Z,97498.13
2023-05-12T15:27:39.518Z,97494.63
2023-05-12T15:30:09.983Z,97496.47
2023-05-12T15:32:41.138Z,97494.47
2023-05-12T15:35:11.202Z,97491.44
2023-05-12T15:37:39.624Z,97493.94
2023-05-12T15:40:10.256Z,97489.88
2023-05-12T15:42:39.936Z,97491.34
2023-05-12T15:45:10.151Z,97488.50
2023-05-12T15:47:38.644Z,97493.31
2023-05-12T15:50:10.367Z,97493.97
2023-05-12T15:52:38.732Z,97497.28
2023-05-12T15:55:07.817Z,97491.41
2023-05-12T15:57:36.148Z,97490.25
2023-05-12T16:00:10.211Z,97493.38
2023-05-12T16:02:38.900Z,97489.69
2023-05-12T16:05:09.322Z,97488.31
2023-05-12T16:07:38.793Z,97490.63
2023-05-12T16:10:08.187Z,97489.00
2023-05-12T16:12:36.533Z,97488.28
2023-05-12T16:15:07.672Z,97494.41
2023-05-12T16:17:36.044Z,97486.22
2023-05-12T16:20:04.678Z,97494.25
2023-05-12T16:22:32.992Z,97489.56
2023-05-12T16:25:01.413Z,97487.72
2023-05-12T16:27:32.042Z,97492.06
2023-05-12T16:30:00.590Z,97484.22
2023-05-12T16:32:30.587Z,97488.53
2023-05-12T16:34:58.989Z,97493.44
2023-05-12T16:37:27.872Z,97489.75
2023-05-12T16:39:56.316Z,97492.22
2023-05-12T16:42:24.946Z,97491.38
2023-05-12T16:44:54.808Z,97489.56
2023-05-12T16:47:25.923Z,97490.75
2023-05-12T16:49:58.129Z,97494.41
2023-05-12T16:52:26.767Z,97493.97
2023-05-12T16:54:56.869Z,97497.28
2023-05-12T16:57:25.416Z,97497.44
2023-05-12T16:59:53.808Z,97492.28
2023-05-12T17:02:22.398Z,97495.81
2023-05-12T17:04:50.970Z,97489.00
2023-05-12T17:07:20.737Z,97495.31
2023-05-12T17:09:49.097Z,97492.66
2023-05-12T17:12:17.609Z,97496.34
2023-05-12T17:14:50.298Z,97500.84
2023-05-12T17:17:28.768Z,97497.34
2023-05-12T17:19:57.273Z,97502.50
2023-05-12T17:22:28.026Z,97499.38
2023-05-12T17:24:56.952Z,97499.53
2023-05-12T17:27:25.798Z,97506.72
2023-05-12T17:29:54.151Z,97504.22
2023-05-12T17:32:23.031Z,97506.09
2023-05-12T17:34:52.552Z,97502.75
2023-05-12T17:37:20.942Z,97509.28
2023-05-12T17:39:50.788Z,97509.66
2023-05-12T17:42:19.181Z,97509.66
2023-05-12T17:44:47.554Z,97516.16
2023-05-12T17:47:16.624Z,97518.00
2023-05-12T17:49:46.181Z,97512.66
2023-05-12T17:52:14.541Z,97515.16
2023-05-12T17:54:42.950Z,97516.16
2023-05-12T17:57:12.723Z,97516.16
2023-05-12T17:59:41.095Z,97524.16
2023-05-12T18:02:09.448Z,97525.16
2023-05-12T18:04:38.010Z,97526.38
2023-05-12T18:07:06.774Z,97519.53
2023-05-12T18:09:35.217Z,97529.22
2023-05-12T18:12:03.834Z,97538.22
2023-05-12T18:14:33.552Z,97533.22
2023-05-12T18:17:02.184Z,97536.06
2023-05-12T18:19:30.630Z,97529.25
2023-05-12T18:21:59.019Z,97536.63
2023-05-12T18:24:31.596Z,97539.47
2023-05-12T18:27:00.035Z,97544.16
2023-05-12T18:29:28.442Z,97545.34
2023-05-12T18:31:58.358Z,97540.19
2023-05-12T18:34:26.792Z,97546.50
2023-05-12T18:36:56.048Z,97549.34
2023-05-12T18:39:25.061Z,97549.69
2023-05-12T18:41:54.849Z,97549.06
2023-05-12T18:44:23.233Z,97555.56
2023-05-12T18:46:51.685Z,97559.25
2023-05-12T18:49:21.423Z,97558.56
2023-05-12T18:51:49.745Z,97553.41
2023-05-12T18:54:18.102Z,97558.75
2023-05-12T18:56:47.498Z,97560.78
2023-05-12T18:59:15.845Z,97563.94
2023-05-12T19:01:44.323Z,97569.28
2023-05-12T19:04:12.775Z,97570.25
2023-05-12T19:06:42.695Z,97570.59
2023-05-12T19:09:11.109Z,97568.09
2023-05-12T19:11:39.570Z,97573.44
2023-05-12T19:14:08.223Z,97577.13
2023-05-12T19:16:38.302Z,97577.13
2023-05-12T19:19:07.209Z,97575.47
2023-05-12T19:21:35.786Z,97569.47
2023-05-12T19:24:06.251Z,97582.13
2023-05-12T19:26:34.656Z,97581.50
2023-05-12T19:29:03.048Z,97582.69
2023-05-12T19:31:31.942Z,97582.69
2023-05-12T19:34:00.339Z,97585.34
2023-05-12T19:36:29.335Z,97584.50
2023-05-12T19:38:59.615Z,97583.84
2023-05-12T19:41:30.924Z,97586.34
2023-05-12T19:43:59.266Z,97590.84
2023-05-12T19:46:27.647Z,97591.84
2023-05-12T19:48:56.069Z,97591.84
2023-05-12T19:51:27.257Z,97592.84
2023-05-12T19:53:55.582Z,97592.00
2023-05-12T19:56:24.214Z,97590.34
2023-05-12T19:58:53.940Z,97587.03
2023-05-12T20:01:22.480Z,97589.69
2023-05-12T20:03:50.970Z,97586.38
2023-05-12T20:06:20.251Z,97577.53
2023-05-12T20:08:51.535Z,97580.38
2023-05-12T20:11:19.885Z,97583.88
2023-05-12T20:13:48.206Z,97588.56
2023-05-12T20:16:18.372Z,97586.91
2023-05-12T20:18:46.822Z,97585.03
2023-05-12T20:21:15.519Z,97579.88
2023-05-12T20:23:44.378Z,97586.22
2023-05-12T20:26:12.772Z,97580.06
2023-05-12T20:28:41.163Z,97578.41
2023-05-12T20:31:10.131Z,97574.09
2023-05-12T20:33:39.951Z,97568.41
2023-05-12T20:36:08.918Z,97576.06
2023-05-12T20:38:37.396Z,97574.41
2023-05-12T20:41:06.357Z,97566.59
2023-05-12T20:43:34.808Z,97563.94
2023-05-12T20:46:04.995Z,97564.91
2023-05-12T20:48:33.637Z,97567.56
2023-05-12T20:51:12.767Z,97563.25
2023-05-12T20:53:42.111Z,97567.56
2023-05-12T20:56:10.716Z,97566.94
2023-05-12T20:58:39.128Z,97559.91
2023-05-12T21:01:07.534Z,97570.75
2023-05-12T21:03:36.222Z,97560.25
2023-05-12T21:06:06.893Z,97564.97
2023-05-12T21:08:36.682Z,97566.94
2023-05-12T21:11:05.151Z,97553.97
2023-05-12T21:13:33.956Z,97564.47
2023-05-12T21:16:02.315Z,97557.66
2023-05-12T21:18:30.714Z,97564.97
2023-05-12T21:20:59.006Z,97564.28
2023-05-12T21:23:27.392Z,97565.31
2023-05-12T21:25:57.229Z,97568.13
2023-05-12T21:28:25.583Z,97568.47
2023-05-12T21:30:54.004Z,97560.66
2023-05-12T21:33:22.403Z,97575.00
2023-05-12T21:35:50.826Z,97568.00
2023-05-12T21:38:20.775Z,97568.19
2023-05-12T21:40:51.919Z,97564.66
2023-05-12T21:43:21.650Z,97568.34
2023-05-12T21:45:50.010Z,97574.50
2023-05-12T21:48:18.572Z,97567.50
2023-05-12T21:50:46.925Z,97561.66
2023-05-12T21:53:15.309Z,97564.50
2023-05-12T21:55:43.888Z,97575.00
2023-05-12T21:58:12.289Z,97564.50
2023-05-12T22:00:41.992Z,97567.34
2023-05-12T22:03:10.636Z,97571.69
2023-05-12T22:05:39.396Z,97567.34
2023-05-12T22:08:07.754Z,97567.34
2023-05-12T22:10:36.114Z,97566.69
2023-05-12T22:13:04.557Z,97568.34
2023-05-12T22:15:33.272Z,97566.69
2023-05-12T22:18:03.106Z,97566.03
2023-05-12T22:20:31.542Z,97566.69
2023-05-12T22:22:59.903Z,97564.19
2023-05-12T22:25:28.453Z,97563.34
2023-05-12T22:27:56.802Z,97564.38
2023-05-12T22:30:25.321Z,97563.53
2023-05-12T22:32:54.076Z,97560.03
2023-05-12T22:35:23.875Z,97556.72
2023-05-12T22:37:52.336Z,97556.53
2023-05-12T22:40:23.121Z,97556.72
2023-05-12T22:42:51.636Z,97561.38
2023-05-12T22:45:20.232Z,97562.38
2023-05-12T22:47:48.621Z,97556.38
2023-05-12T22:50:17.208Z,97559.22
2023-05-12T22:52:46.964Z,97553.03
2023-05-12T22:55:15.299Z,97555.88
2023-05-12T22:57:46.016Z,97554.91
2023-05-12T23:00:15.799Z,97559.38
2023-05-12T23:02:44.274Z,97557.72
2023-05-12T23:05:12.690Z,97558.69
2023-05-12T23:07:41.005Z,97554.38
2023-05-12T23:10:11.591Z,97553.69
2023-05-12T23:12:40.310Z,97553.53
2023-05-12T23:15:09.915Z,97547.41
2023-05-12T23:17:38.315Z,97551.88
2023-05-12T23:20:08.884Z,97548.34
2023-05-12T23:22:37.246Z,97553.69
2023-05-12T23:25:06.129Z,97546.56
2023-05-12T23:27:36.842Z,97542.22
2023-05-12T23:30:06.023Z,97537.88
2023-05-12T23:32:34.656Z,97533.56
2023-05-12T23:35:03.078Z,97530.88
2023-05-12T23:37:31.486Z,97529.25
2023-05-12T23:39:59.874Z,97532.72
2023-05-12T23:42:28.155Z,97528.41
2023-05-12T23:44:57.951Z,97525.91
2023-05-12T23:47:37.937Z,97533.03
2023-05-12T23:50:08.026Z,97533.38
2023-05-12T23:52:36.435Z,97536.03
2023-05-12T23:55:05.092Z,97530.06
2023-05-12T23:57:33.364Z,97531.09
